sensor_id;sensor_type;location;lat;lon;timestamp;P1;durP1;ratioP1;P2;durP2;ratioP2
3257;SDS011;1641;51.306;12.384;2023-05-07T00:01:11;15.60;;;10.57;;
3257;SDS011;1641;51.306;12.384;2023-05-07T00:03:36;11.88;;;9.25;;
3257;SDS011;1641;51.306;12.384;2023-05-07T00:06:02;18.17;;;11.60;;
3257;SDS011;1641;51.306;12.384;2023-05-07T00:08:28;17.38;;;10.80;;
3257;SDS011;1641;51.306;12.384;2023-05-07T00:10:53;16.75;;;11.88;;
3257;SDS011;1641;51.306;12.384;2023-05-07T00:13:19;17.15;;;12.00;;
3257;SDS011;1641;51.306;12.384;2023-05-07T00:15:47;15.43;;;12.15;;
3257;SDS011;1641;51.306;12.384;2023-05-07T00:18:12;16.23;;;11.88;;
3257;SDS011;1641;51.306;12.384;2023-05-07T00:20:37;14.93;;;10.23;;
3257;SDS011;1641;51.306;12.384;2023-05-07T00:23:03;13.20;;;10.52;;
3257;SDS011;1641;51.306;12.384;2023-05-07T00:25:28;12.93;;;10.10;;
3257;SDS011;1641;51.306;12.384;2023-05-07T00:27:53;13.27;;;10.95;;
3257;SDS011;1641;51.306;12.384;2023-05-07T00:30:18;14.75;;;9.90;;
3257;SDS011;1641;51.306;12.384;2023-05-07T00:32:44;10.60;;;8.65;;
3257;SDS011;1641;51.306;12.384;2023-05-07T00:35:10;12.23;;;10.20;;
3257;SDS011;1641;51.306;12.384;2023-05-07T00:37:36;13.48;;;9.15;;
3257;SDS011;1641;51.306;12.384;2023-05-07T00:40:04;10.80;;;8.95;;
3257;SDS011;1641;51.306;12.384;2023-05-07T00:42:32;7.77;;;6.13;;
3257;SDS011;1641;51.306;12.384;2023-05-07T00:44:57;11.85;;;9.27;;
3257;SDS011;1641;51.306;12.384;2023-05-07T00:47:23;12.23;;;8.93;;
3257;SDS011;1641;51.306;12.384;2023-05-07T00:49:49;11.30;;;9.30;;
3257;SDS011;1641;51.306;12.384;2023-05-07T00:52:18;10.13;;;7.45;;
3257;SDS011;1641;51.306;12.384;2023-05-07T00:57:14;12.13;;;8.48;;
3257;SDS011;1641;51.306;12.384;2023-05-07T00:59:40;11.73;;;8.65;;
3257;SDS011;1641;51.306;12.384;2023-05-07T01:02:06;11.73;;;9.65;;
3257;SDS011;1641;51.306;12.384;2023-05-07T01:04:31;13.63;;;8.88;;
3257;SDS011;1641;51.306;12.384;2023-05-07T01:07:00;11.32;;;9.10;;
3257;SDS011;1641;51.306;12.384;2023-05-07T01:09:26;11.80;;;8.45;;
3257;SDS011;1641;51.306;12.384;2023-05-07T01:11:53;11.15;;;9.00;;
3257;SDS011;1641;51.306;12.384;2023-05-07T01:14:20;16.35;;;11.10;;
3257;SDS011;1641;51.306;12.384;2023-05-07T01:16:46;14.52;;;10.40;;
3257;SDS011;1641;51.306;12.384;2023-05-07T01:19:12;12.05;;;9.02;;
3257;SDS011;1641;51.306;12.384;2023-05-07T01:21:39;12.27;;;8.25;;
3257;SDS011;1641;51.306;12.384;2023-05-07T01:24:11;13.05;;;10.30;;
3257;SDS011;1641;51.306;12.384;2023-05-07T01:26:36;15.23;;;11.20;;
3257;SDS011;1641;51.306;12.384;2023-05-07T01:29:02;22.05;;;13.98;;
3257;SDS011;1641;51.306;12.384;2023-05-07T01:31:27;14.35;;;11.20;;
3257;SDS011;1641;51.306;12.384;2023-05-07T01:33:52;13.27;;;10.98;;
3257;SDS011;1641;51.306;12.384;2023-05-07T01:36:18;14.32;;;10.90;;
3257;SDS011;1641;51.306;12.384;2023-05-07T01:38:45;15.40;;;12.05;;
3257;SDS011;1641;51.306;12.384;2023-05-07T01:41:13;17.70;;;12.65;;
3257;SDS011;1641;51.306;12.384;2023-05-07T01:43:39;14.57;;;10.50;;
3257;SDS011;1641;51.306;12.384;2023-05-07T01:46:06;17.23;;;11.27;;
3257;SDS011;1641;51.306;12.384;2023-05-07T01:48:35;24.00;;;12.75;;
3257;SDS011;1641;51.306;12.384;2023-05-07T01:51:02;14.10;;;10.98;;
3257;SDS011;1641;51.306;12.384;2023-05-07T01:53:28;17.20;;;11.98;;
3257;SDS011;1641;51.306;12.384;2023-05-07T01:55:53;20.90;;;12.93;;
3257;SDS011;1641;51.306;12.384;2023-05-07T01:58:18;16.65;;;11.52;;
3257;SDS011;1641;51.306;12.384;2023-05-07T02:00:44;18.00;;;12.90;;
3257;SDS011;1641;51.306;12.384;2023-05-07T02:03:12;16.20;;;12.88;;
3257;SDS011;1641;51.306;12.384;2023-05-07T02:05:37;18.38;;;14.60;;
3257;SDS011;1641;51.306;12.384;2023-05-07T02:08:03;19.58;;;13.38;;
3257;SDS011;1641;51.306;12.384;2023-05-07T02:10:28;22.13;;;14.75;;
3257;SDS011;1641;51.306;12.384;2023-05-07T02:12:53;22.80;;;14.27;;
3257;SDS011;1641;51.306;12.384;2023-05-07T02:15:18;19.30;;;13.32;;
3257;SDS011;1641;51.306;12.384;2023-05-07T02:18:00;23.27;;;14.55;;
3257;SDS011;1641;51.306;12.384;2023-05-07T02:20:27;22.95;;;15.20;;
3257;SDS011;1641;51.306;12.384;2023-05-07T02:22:52;22.98;;;15.30;;
3257;SDS011;1641;51.306;12.384;2023-05-07T02:25:17;22.60;;;14.90;;
3257;SDS011;1641;51.306;12.384;2023-05-07T02:27:42;32.30;;;16.83;;
3257;SDS011;1641;51.306;12.384;2023-05-07T02:30:08;19.92;;;15.45;;
3257;SDS011;1641;51.306;12.384;2023-05-07T02:32:33;23.13;;;16.05;;
3257;SDS011;1641;51.306;12.384;2023-05-07T02:34:58;24.10;;;16.65;;
3257;SDS011;1641;51.306;12.384;2023-05-07T02:37:24;20.50;;;15.77;;
3257;SDS011;1641;51.306;12.384;2023-05-07T02:39:49;21.90;;;15.25;;
3257;SDS011;1641;51.306;12.384;2023-05-07T02:42:15;22.23;;;15.05;;
3257;SDS011;1641;51.306;12.384;2023-05-07T02:44:40;21.45;;;15.38;;
3257;SDS011;1641;51.306;12.384;2023-05-07T02:47:05;26.52;;;16.17;;
3257;SDS011;1641;51.306;12.384;2023-05-07T02:49:33;22.27;;;15.77;;
3257;SDS011;1641;51.306;12.384;2023-05-07T02:51:58;19.98;;;15.75;;
3257;SDS011;1641;51.306;12.384;2023-05-07T02:54:23;21.40;;;15.73;;
3257;SDS011;1641;51.306;12.384;2023-05-07T02:56:48;22.60;;;15.18;;
3257;SDS011;1641;51.306;12.384;2023-05-07T02:59:14;21.88;;;16.10;;
3257;SDS011;1641;51.306;12.384;2023-05-07T03:01:39;21.73;;;15.65;;
3257;SDS011;1641;51.306;12.384;2023-05-07T03:04:04;20.75;;;15.10;;
3257;SDS011;1641;51.306;12.384;2023-05-07T03:06:30;23.35;;;16.65;;
3257;SDS011;1641;51.306;12.384;2023-05-07T03:08:55;21.42;;;15.73;;
3257;SDS011;1641;51.306;12.384;2023-05-07T03:11:20;20.95;;;16.42;;
3257;SDS011;1641;51.306;12.384;2023-05-07T03:13:45;24.27;;;16.90;;
3257;SDS011;1641;51.306;12.384;2023-05-07T03:16:11;20.20;;;16.13;;
3257;SDS011;1641;51.306;12.384;2023-05-07T03:18:36;28.80;;;15.82;;
3257;SDS011;1641;51.306;12.384;2023-05-07T03:21:01;22.23;;;16.25;;
3257;SDS011;1641;51.306;12.384;2023-05-07T03:23:26;19.75;;;15.20;;
3257;SDS011;1641;51.306;12.384;2023-05-07T03:25:51;20.05;;;14.48;;
3257;SDS011;1641;51.306;12.384;2023-05-07T03:28:17;21.90;;;15.48;;
3257;SDS011;1641;51.306;12.384;2023-05-07T03:30:42;18.88;;;14.95;;
3257;SDS011;1641;51.306;12.384;2023-05-07T03:33:07;20.48;;;14.75;;
3257;SDS011;1641;51.306;12.384;2023-05-07T03:35:32;20.48;;;15.10;;
3257;SDS011;1641;51.306;12.384;2023-05-07T03:37:58;21.55;;;14.82;;
3257;SDS011;1641;51.306;12.384;2023-05-07T03:40:23;21.58;;;14.57;;
3257;SDS011;1641;51.306;12.384;2023-05-07T03:42:57;19.23;;;14.20;;
3257;SDS011;1641;51.306;12.384;2023-05-07T03:45:24;18.33;;;14.52;;
3257;SDS011;1641;51.306;12.384;2023-05-07T03:47:49;24.67;;;16.05;;
3257;SDS011;1641;51.306;12.384;2023-05-07T03:50:14;18.13;;;14.23;;
3257;SDS011;1641;51.306;12.384;2023-05-07T03:52:40;24.83;;;16.08;;
3257;SDS011;1641;51.306;12.384;2023-05-07T03:55:05;18.95;;;13.98;;
3257;SDS011;1641;51.306;12.384;2023-05-07T03:57:31;18.83;;;15.00;;
3257;SDS011;1641;51.306;12.384;2023-05-07T03:59:56;22.50;;;15.18;;
3257;SDS011;1641;51.306;12.384;2023-05-07T04:02:21;21.15;;;13.82;;
3257;SDS011;1641;51.306;12.384;2023-05-07T04:04:48;17.90;;;13.98;;
3257;SDS011;1641;51.306;12.384;2023-05-07T04:07:14;20.60;;;14.70;;
3257;SDS011;1641;51.306;12.384;2023-05-07T04:09:39;18.83;;;14.77;;
3257;SDS011;1641;51.306;12.384;2023-05-07T04:12:05;20.83;;;14.32;;
3257;SDS011;1641;51.306;12.384;2023-05-07T04:14:30;18.98;;;15.57;;
3257;SDS011;1641;51.306;12.384;2023-05-07T04:16:57;18.73;;;14.20;;
3257;SDS011;1641;51.306;12.384;2023-05-07T04:19:22;18.50;;;14.57;;
3257;SDS011;1641;51.306;12.384;2023-05-07T04:21:48;17.55;;;13.30;;
3257;SDS011;1641;51.306;12.384;2023-05-07T04:24:16;20.80;;;14.38;;
3257;SDS011;1641;51.306;12.384;2023-05-07T04:26:42;19.25;;;14.02;;
3257;SDS011;1641;51.306;12.384;2023-05-07T04:29:07;19.63;;;13.68;;
3257;SDS011;1641;51.306;12.384;2023-05-07T04:31:33;18.40;;;15.20;;
3257;SDS011;1641;51.306;12.384;2023-05-07T04:33:58;18.52;;;14.00;;
3257;SDS011;1641;51.306;12.384;2023-05-07T04:36:23;19.85;;;15.32;;
3257;SDS011;1641;51.306;12.384;2023-05-07T04:38:52;19.38;;;13.38;;
3257;SDS011;1641;51.306;12.384;2023-05-07T04:41:17;15.95;;;12.70;;
3257;SDS011;1641;51.306;12.384;2023-05-07T04:43:43;19.30;;;14.20;;
3257;SDS011;1641;51.306;12.384;2023-05-07T04:46:08;15.43;;;13.00;;
3257;SDS011;1641;51.306;12.384;2023-05-07T04:48:33;19.02;;;14.63;;
3257;SDS011;1641;51.306;12.384;2023-05-07T04:50:58;18.90;;;13.15;;
3257;SDS011;1641;51.306;12.384;2023-05-07T04:53:30;19.45;;;14.77;;
3257;SDS011;1641;51.306;12.384;2023-05-07T04:55:56;21.23;;;13.88;;
3257;SDS011;1641;51.306;12.384;2023-05-07T04:58:22;19.90;;;13.70;;
3257;SDS011;1641;51.306;12.384;2023-05-07T05:00:47;19.58;;;14.05;;
3257;SDS011;1641;51.306;12.384;2023-05-07T05:03:13;17.80;;;13.40;;
3257;SDS011;1641;51.306;12.384;2023-05-07T05:05:38;18.95;;;13.07;;
3257;SDS011;1641;51.306;12.384;2023-05-07T05:08:03;18.88;;;13.88;;
3257;SDS011;1641;51.306;12.384;2023-05-07T05:10:28;14.85;;;12.38;;
3257;SDS011;1641;51.306;12.384;2023-05-07T05:12:54;17.60;;;12.80;;
3257;SDS011;1641;51.306;12.384;2023-05-07T05:15:19;13.07;;;9.40;;
3257;SDS011;1641;51.306;12.384;2023-05-07T05:17:44;15.38;;;12.55;;
3257;SDS011;1641;51.306;12.384;2023-05-07T05:20:10;19.45;;;12.57;;
3257;SDS011;1641;51.306;12.384;2023-05-07T05:22:36;24.13;;;13.98;;
3257;SDS011;1641;51.306;12.384;2023-05-07T05:25:02;16.27;;;11.88;;
3257;SDS011;1641;51.306;12.384;2023-05-07T05:27:27;26.80;;;19.52;;
3257;SDS011;1641;51.306;12.384;2023-05-07T05:29:53;15.75;;;12.52;;
3257;SDS011;1641;51.306;12.384;2023-05-07T05:32:19;17.67;;;13.05;;
3257;SDS011;1641;51.306;12.384;2023-05-07T05:34:44;14.40;;;10.63;;
3257;SDS011;1641;51.306;12.384;2023-05-07T05:37:09;17.73;;;12.95;;
3257;SDS011;1641;51.306;12.384;2023-05-07T05:39:35;15.98;;;11.00;;
3257;SDS011;1641;51.306;12.384;2023-05-07T05:42:00;17.30;;;11.35;;
3257;SDS011;1641;51.306;12.384;2023-05-07T05:44:26;13.98;;;8.63;;
3257;SDS011;1641;51.306;12.384;2023-05-07T05:46:51;12.02;;;8.57;;
3257;SDS011;1641;51.306;12.384;2023-05-07T05:49:16;15.18;;;9.07;;
3257;SDS011;1641;51.306;12.384;2023-05-07T05:51:41;12.48;;;9.90;;
3257;SDS011;1641;51.306;12.384;2023-05-07T05:54:08;12.35;;;9.20;;
3257;SDS011;1641;51.306;12.384;2023-05-07T05:56:33;15.60;;;8.88;;
3257;SDS011;1641;51.306;12.384;2023-05-07T05:58:58;18.60;;;13.77;;
3257;SDS011;1641;51.306;12.384;2023-05-07T06:01:24;12.90;;;10.25;;
3257;SDS011;1641;51.306;12.384;2023-05-07T06:03:49;12.45;;;9.60;;
3257;SDS011;1641;51.306;12.384;2023-05-07T06:06:15;11.30;;;8.02;;
3257;SDS011;1641;51.306;12.384;2023-05-07T06:08:40;11.13;;;8.02;;
3257;SDS011;1641;51.306;12.384;2023-05-07T06:11:06;13.68;;;9.80;;
3257;SDS011;1641;51.306;12.384;2023-05-07T06:13:31;11.40;;;8.95;;
3257;SDS011;1641;51.306;12.384;2023-05-07T06:15:56;11.43;;;8.30;;
3257;SDS011;1641;51.306;12.384;2023-05-07T06:18:21;13.40;;;9.27;;
3257;SDS011;1641;51.306;12.384;2023-05-07T06:20:47;15.00;;;9.52;;
3257;SDS011;1641;51.306;12.384;2023-05-07T06:23:12;11.32;;;9.50;;
3257;SDS011;1641;51.306;12.384;2023-05-07T06:25:39;13.77;;;10.23;;
3257;SDS011;1641;51.306;12.384;2023-05-07T06:28:04;14.48;;;9.32;;
3257;SDS011;1641;51.306;12.384;2023-05-07T06:30:30;15.13;;;11.05;;
3257;SDS011;1641;51.306;12.384;2023-05-07T06:32:56;13.52;;;10.48;;
3257;SDS011;1641;51.306;12.384;2023-05-07T06:35:21;17.35;;;8.77;;
3257;SDS011;1641;51.306;12.384;2023-05-07T06:37:46;12.60;;;9.95;;
3257;SDS011;1641;51.306;12.384;2023-05-07T06:40:11;16.85;;;10.20;;
3257;SDS011;1641;51.306;12.384;2023-05-07T06:42:37;14.95;;;10.90;;
3257;SDS011;1641;51.306;12.384;2023-05-07T06:45:03;27.63;;;10.93;;
3257;SDS011;1641;51.306;12.384;2023-05-07T06:47:28;15.10;;;10.32;;
3257;SDS011;1641;51.306;12.384;2023-05-07T06:49:54;19.77;;;14.50;;
3257;SDS011;1641;51.306;12.384;2023-05-07T06:52:19;14.48;;;11.68;;
3257;SDS011;1641;51.306;12.384;2023-05-07T06:54:44;13.52;;;11.05;;
3257;SDS011;1641;51.306;12.384;2023-05-07T06:57:10;14.43;;;8.73;;
3257;SDS011;1641;51.306;12.384;2023-05-07T06:59:35;18.33;;;12.93;;
3257;SDS011;1641;51.306;12.384;2023-05-07T07:02:00;10.63;;;8.15;;
3257;SDS011;1641;51.306;12.384;2023-05-07T07:04:26;14.38;;;10.32;;
3257;SDS011;1641;51.306;12.384;2023-05-07T07:06:51;11.68;;;8.90;;
3257;SDS011;1641;51.306;12.384;2023-05-07T07:09:18;11.68;;;9.23;;
3257;SDS011;1641;51.306;12.384;2023-05-07T07:11:44;10.48;;;7.95;;
3257;SDS011;1641;51.306;12.384;2023-05-07T07:14:09;9.25;;;6.35;;
3257;SDS011;1641;51.306;12.384;2023-05-07T07:16:34;9.73;;;8.00;;
3257;SDS011;1641;51.306;12.384;2023-05-07T07:18:59;9.52;;;5.00;;
3257;SDS011;1641;51.306;12.384;2023-05-07T07:21:24;12.57;;;9.27;;
3257;SDS011;1641;51.306;12.384;2023-05-07T07:23:50;9.02;;;6.93;;
3257;SDS011;1641;51.306;12.384;2023-05-07T07:26:15;12.32;;;8.50;;
3257;SDS011;1641;51.306;12.384;2023-05-07T07:28:43;8.00;;;5.50;;
3257;SDS011;1641;51.306;12.384;2023-05-07T07:31:10;9.38;;;6.53;;
3257;SDS011;1641;51.306;12.384;2023-05-07T07:33:35;7.88;;;6.15;;
3257;SDS011;1641;51.306;12.384;2023-05-07T07:36:01;10.43;;;8.68;;
3257;SDS011;1641;51.306;12.384;2023-05-07T07:38:26;8.63;;;6.38;;
3257;SDS011;1641;51.306;12.384;2023-05-07T07:40:52;9.75;;;6.65;;
3257;SDS011;1641;51.306;12.384;2023-05-07T07:43:17;9.73;;;7.47;;
3257;SDS011;1641;51.306;12.384;2023-05-07T07:45:42;9.00;;;8.10;;
3257;SDS011;1641;51.306;12.384;2023-05-07T07:48:07;8.23;;;7.22;;
3257;SDS011;1641;51.306;12.384;2023-05-07T07:50:33;9.30;;;8.40;;
3257;SDS011;1641;51.306;12.384;2023-05-07T07:52:58;9.52;;;7.72;;
3257;SDS011;1641;51.306;12.384;2023-05-07T07:55:23;8.38;;;7.32;;
3257;SDS011;1641;51.306;12.384;2023-05-07T07:57:49;9.13;;;7.10;;
3257;SDS011;1641;51.306;12.384;2023-05-07T08:00:15;10.48;;;8.20;;
3257;SDS011;1641;51.306;12.384;2023-05-07T08:02:41;9.00;;;7.13;;
3257;SDS011;1641;51.306;12.384;2023-05-07T08:05:06;7.95;;;7.07;;
3257;SDS011;1641;51.306;12.384;2023-05-07T08:07:32;9.38;;;7.30;;
3257;SDS011;1641;51.306;12.384;2023-05-07T08:09:57;10.98;;;7.90;;
3257;SDS011;1641;51.306;12.384;2023-05-07T08:12:23;6.82;;;6.15;;
3257;SDS011;1641;51.306;12.384;2023-05-07T08:14:48;6.93;;;5.93;;
3257;SDS011;1641;51.306;12.384;2023-05-07T08:17:13;7.95;;;6.97;;
3257;SDS011;1641;51.306;12.384;2023-05-07T08:19:40;8.40;;;7.47;;
3257;SDS011;1641;51.306;12.384;2023-05-07T08:22:06;6.97;;;5.82;;
3257;SDS011;1641;51.306;12.384;2023-05-07T08:24:31;7.63;;;5.50;;
3257;SDS011;1641;51.306;12.384;2023-05-07T08:26:57;7.13;;;6.18;;
3257;SDS011;1641;51.306;12.384;2023-05-07T08:29:22;7.00;;;5.85;;
3257;SDS011;1641;51.306;12.384;2023-05-07T08:31:47;6.30;;;5.13;;
3257;SDS011;1641;51.306;12.384;2023-05-07T08:34:13;7.63;;;5.63;;
3257;SDS011;1641;51.306;12.384;2023-05-07T08:36:38;6.75;;;5.45;;
3257;SDS011;1641;51.306;12.384;2023-05-07T08:39:03;4.70;;;4.22;;
3257;SDS011;1641;51.306;12.384;2023-05-07T08:41:29;6.07;;;5.47;;
3257;SDS011;1641;51.306;12.384;2023-05-07T08:43:54;7.30;;;5.18;;
3257;SDS011;1641;51.306;12.384;2023-05-07T08:46:22;6.90;;;5.60;;
3257;SDS011;1641;51.306;12.384;2023-05-07T08:48:50;7.47;;;5.45;;
3257;SDS011;1641;51.306;12.384;2023-05-07T08:51:19;8.07;;;5.55;;
3257;SDS011;1641;51.306;12.384;2023-05-07T08:53:46;5.95;;;5.35;;
3257;SDS011;1641;51.306;12.384;2023-05-07T08:56:13;6.05;;;5.38;;
3257;SDS011;1641;51.306;12.384;2023-05-07T08:58:40;5.55;;;4.80;;
3257;SDS011;1641;51.306;12.384;2023-05-07T09:01:07;6.47;;;4.72;;
3257;SDS011;1641;51.306;12.384;2023-05-07T09:03:34;5.50;;;5.00;;
3257;SDS011;1641;51.306;12.384;2023-05-07T09:06:00;5.75;;;5.15;;
3257;SDS011;1641;51.306;12.384;2023-05-07T09:08:28;6.60;;;5.10;;
3257;SDS011;1641;51.306;12.384;2023-05-07T09:10:53;6.57;;;5.88;;
3257;SDS011;1641;51.306;12.384;2023-05-07T09:13:19;5.75;;;4.03;;
3257;SDS011;1641;51.306;12.384;2023-05-07T09:15:45;11.38;;;6.72;;
3257;SDS011;1641;51.306;12.384;2023-05-07T09:18:10;9.68;;;5.50;;
3257;SDS011;1641;51.306;12.384;2023-05-07T09:20:37;5.13;;;4.40;;
3257;SDS011;1641;51.306;12.384;2023-05-07T09:23:02;8.80;;;6.85;;
3257;SDS011;1641;51.306;12.384;2023-05-07T09:25:28;5.68;;;5.13;;
3257;SDS011;1641;51.306;12.384;2023-05-07T09:27:54;5.13;;;4.63;;
3257;SDS011;1641;51.306;12.384;2023-05-07T09:30:20;5.32;;;4.82;;
3257;SDS011;1641;51.306;12.384;2023-05-07T09:32:45;6.13;;;5.45;;
3257;SDS011;1641;51.306;12.384;2023-05-07T09:35:14;5.90;;;4.65;;
3257;SDS011;1641;51.306;12.384;2023-05-07T09:37:41;8.38;;;5.13;;
3257;SDS011;1641;51.306;12.384;2023-05-07T09:40:06;6.72;;;5.15;;
3257;SDS011;1641;51.306;12.384;2023-05-07T09:42:33;6.65;;;5.13;;
3257;SDS011;1641;51.306;12.384;2023-05-07T09:44:59;7.22;;;5.28;;
3257;SDS011;1641;51.306;12.384;2023-05-07T09:47:24;6.95;;;5.88;;
3257;SDS011;1641;51.306;12.384;2023-05-07T09:49:50;12.68;;;7.68;;
3257;SDS011;1641;51.306;12.384;2023-05-07T09:52:20;7.30;;;6.60;;
3257;SDS011;1641;51.306;12.384;2023-05-07T09:54:45;18.45;;;11.18;;
3257;SDS011;1641;51.306;12.384;2023-05-07T09:57:12;5.05;;;4.53;;
3257;SDS011;1641;51.306;12.384;2023-05-07T09:59:38;8.38;;;5.75;;
3257;SDS011;1641;51.306;12.384;2023-05-07T10:02:07;5.85;;;5.25;;
3257;SDS011;1641;51.306;12.384;2023-05-07T10:04:35;5.97;;;5.38;;
3257;SDS011;1641;51.306;12.384;2023-05-07T10:07:01;6.90;;;5.95;;
3257;SDS011;1641;51.306;12.384;2023-05-07T10:09:28;6.07;;;5.07;;
3257;SDS011;1641;51.306;12.384;2023-05-07T10:11:55;6.07;;;5.43;;
3257;SDS011;1641;51.306;12.384;2023-05-07T10:14:22;5.50;;;4.13;;
3257;SDS011;1641;51.306;12.384;2023-05-07T10:16:48;7.43;;;4.90;;
3257;SDS011;1641;51.306;12.384;2023-05-07T10:19:13;5.88;;;5.05;;
3257;SDS011;1641;51.306;12.384;2023-05-07T10:21:41;5.18;;;4.22;;
3257;SDS011;1641;51.306;12.384;2023-05-07T10:24:10;5.57;;;5.07;;
3257;SDS011;1641;51.306;12.384;2023-05-07T10:26:47;6.80;;;4.70;;
3257;SDS011;1641;51.306;12.384;2023-05-07T10:34:39;5.20;;;4.70;;
3257;SDS011;1641;51.306;12.384;2023-05-07T10:37:08;5.00;;;3.97;;
3257;SDS011;1641;51.306;12.384;2023-05-07T10:39:35;3.25;;;2.95;;
3257;SDS011;1641;51.306;12.384;2023-05-07T10:42:10;5.05;;;4.10;;
3257;SDS011;1641;51.306;12.384;2023-05-07T10:44:36;7.22;;;4.22;;
3257;SDS011;1641;51.306;12.384;2023-05-07T10:49:31;4.18;;;3.15;;
3257;SDS011;1641;51.306;12.384;2023-05-07T10:52:18;4.47;;;3.70;;
3257;SDS011;1641;51.306;12.384;2023-05-07T10:54:47;5.68;;;3.50;;
3257;SDS011;1641;51.306;12.384;2023-05-07T10:57:52;5.72;;;3.70;;
3257;SDS011;1641;51.306;12.384;2023-05-07T11:05:32;3.90;;;3.03;;
3257;SDS011;1641;51.306;12.384;2023-05-07T11:10:49;4.93;;;4.43;;
3257;SDS011;1641;51.306;12.384;2023-05-07T11:13:40;4.93;;;4.47;;
3257;SDS011;1641;51.306;12.384;2023-05-07T11:19:17;5.80;;;4.47;;
3257;SDS011;1641;51.306;12.384;2023-05-07T11:24:59;4.68;;;4.20;;
3257;SDS011;1641;51.306;12.384;2023-05-07T11:27:25;4.63;;;4.22;;
3257;SDS011;1641;51.306;12.384;2023-05-07T11:30:00;4.65;;;3.95;;
3257;SDS011;1641;51.306;12.384;2023-05-07T11:32:30;3.83;;;3.45;;
3257;SDS011;1641;51.306;12.384;2023-05-07T11:35:15;3.38;;;3.08;;
3257;SDS011;1641;51.306;12.384;2023-05-07T11:37:43;5.13;;;4.45;;
3257;SDS011;1641;51.306;12.384;2023-05-07T11:40:10;6.65;;;5.35;;
3257;SDS011;1641;51.306;12.384;2023-05-07T11:42:54;7.13;;;3.28;;
3257;SDS011;1641;51.306;12.384;2023-05-07T11:45:23;6.25;;;4.90;;
3257;SDS011;1641;51.306;12.384;2023-05-07T11:47:52;7.85;;;4.75;;
3257;SDS011;1641;51.306;12.384;2023-05-07T11:50:26;6.00;;;4.72;;
3257;SDS011;1641;51.306;12.384;2023-05-07T11:52:52;5.85;;;4.88;;
3257;SDS011;1641;51.306;12.384;2023-05-07T11:55:20;9.23;;;6.43;;
3257;SDS011;1641;51.306;12.384;2023-05-07T11:57:56;5.10;;;4.20;;
3257;SDS011;1641;51.306;12.384;2023-05-07T12:00:21;8.95;;;7.25;;
3257;SDS011;1641;51.306;12.384;2023-05-07T12:02:46;10.60;;;9.02;;
3257;SDS011;1641;51.306;12.384;2023-05-07T12:05:27;5.68;;;4.75;;
3257;SDS011;1641;51.306;12.384;2023-05-07T12:08:08;5.78;;;5.07;;
3257;SDS011;1641;51.306;12.384;2023-05-07T12:10:42;7.55;;;5.93;;
3257;SDS011;1641;51.306;12.384;2023-05-07T12:13:15;7.20;;;5.40;;
3257;SDS011;1641;51.306;12.384;2023-05-07T12:15:56;7.28;;;5.45;;
3257;SDS011;1641;51.306;12.384;2023-05-07T12:18:27;8.93;;;5.87;;
3257;SDS011;1641;51.306;12.384;2023-05-07T12:20:56;6.15;;;4.65;;
3257;SDS011;1641;51.306;12.384;2023-05-07T12:23:25;5.28;;;4.57;;
3257;SDS011;1641;51.306;12.384;2023-05-07T12:25:51;6.93;;;5.55;;
3257;SDS011;1641;51.306;12.384;2023-05-07T12:31:17;7.00;;;6.38;;
3257;SDS011;1641;51.306;12.384;2023-05-07T12:33:43;5.28;;;4.53;;
3257;SDS011;1641;51.306;12.384;2023-05-07T12:39:06;5.78;;;4.97;;
3257;SDS011;1641;51.306;12.384;2023-05-07T12:41:54;4.22;;;3.25;;
3257;SDS011;1641;51.306;12.384;2023-05-07T12:44:30;6.38;;;5.18;;
3257;SDS011;1641;51.306;12.384;2023-05-07T12:47:02;7.95;;;4.57;;
3257;SDS011;1641;51.306;12.384;2023-05-07T12:51:56;6.68;;;5.93;;
3257;SDS011;1641;51.306;12.384;2023-05-07T12:54:37;6.50;;;4.32;;
3257;SDS011;1641;51.306;12.384;2023-05-07T12:57:09;6.28;;;4.78;;
3257;SDS011;1641;51.306;12.384;2023-05-07T12:59:57;4.75;;;3.95;;
3257;SDS011;1641;51.306;12.384;2023-05-07T13:02:31;5.45;;;4.95;;
3257;SDS011;1641;51.306;12.384;2023-05-07T13:05:10;5.78;;;4.63;;
3257;SDS011;1641;51.306;12.384;2023-05-07T13:07:35;5.93;;;5.00;;
3257;SDS011;1641;51.306;12.384;2023-05-07T13:10:05;4.75;;;4.22;;
3257;SDS011;1641;51.306;12.384;2023-05-07T13:12:40;4.43;;;3.80;;
3257;SDS011;1641;51.306;12.384;2023-05-07T13:15:05;5.55;;;4.07;;
3257;SDS011;1641;51.306;12.384;2023-05-07T13:17:31;5.43;;;4.70;;
3257;SDS011;1641;51.306;12.384;2023-05-07T13:22:42;6.32;;;4.90;;
3257;SDS011;1641;51.306;12.384;2023-05-07T13:27:54;5.93;;;4.75;;
3257;SDS011;1641;51.306;12.384;2023-05-07T13:30:19;6.18;;;4.75;;
3257;SDS011;1641;51.306;12.384;2023-05-07T13:32:45;4.35;;;3.38;;
3257;SDS011;1641;51.306;12.384;2023-05-07T13:35:12;5.60;;;4.10;;
3257;SDS011;1641;51.306;12.384;2023-05-07T13:37:38;4.82;;;4.28;;
3257;SDS011;1641;51.306;12.384;2023-05-07T13:40:03;4.57;;;4.07;;
3257;SDS011;1641;51.306;12.384;2023-05-07T13:42:29;10.75;;;7.22;;
3257;SDS011;1641;51.306;12.384;2023-05-07T13:44:56;6.75;;;5.72;;
3257;SDS011;1641;51.306;12.384;2023-05-07T13:47:22;5.70;;;4.47;;
3257;SDS011;1641;51.306;12.384;2023-05-07T13:49:47;5.05;;;4.20;;
3257;SDS011;1641;51.306;12.384;2023-05-07T13:55:29;5.55;;;4.75;;
3257;SDS011;1641;51.306;12.384;2023-05-07T13:57:56;3.55;;;3.25;;
3257;SDS011;1641;51.306;12.384;2023-05-07T14:00:26;5.53;;;3.65;;
3257;SDS011;1641;51.306;12.384;2023-05-07T14:02:52;4.57;;;4.15;;
3257;SDS011;1641;51.306;12.384;2023-05-07T14:05:18;4.28;;;3.88;;
3257;SDS011;1641;51.306;12.384;2023-05-07T14:07:43;9.52;;;3.70;;
3257;SDS011;1641;51.306;12.384;2023-05-07T14:10:09;5.07;;;2.97;;
3257;SDS011;1641;51.306;12.384;2023-05-07T14:12:36;3.38;;;3.08;;
3257;SDS011;1641;51.306;12.384;2023-05-07T14:15:14;9.05;;;7.55;;
3257;SDS011;1641;51.306;12.384;2023-05-07T14:17:41;9.32;;;5.65;;
3257;SDS011;1641;51.306;12.384;2023-05-07T14:20:07;6.25;;;4.82;;
3257;SDS011;1641;51.306;12.384;2023-05-07T14:22:33;3.08;;;2.72;;
3257;SDS011;1641;51.306;12.384;2023-05-07T14:24:58;6.22;;;5.43;;
3257;SDS011;1641;51.306;12.384;2023-05-07T14:30:26;3.35;;;3.00;;
3257;SDS011;1641;51.306;12.384;2023-05-07T14:32:52;8.00;;;3.17;;
3257;SDS011;1641;51.306;12.384;2023-05-07T14:35:17;2.63;;;2.33;;
3257;SDS011;1641;51.306;12.384;2023-05-07T14:37:42;3.75;;;2.70;;
3257;SDS011;1641;51.306;12.384;2023-05-07T14:40:14;3.22;;;2.75;;
3257;SDS011;1641;51.306;12.384;2023-05-07T14:45:23;3.85;;;2.45;;
3257;SDS011;1641;51.306;12.384;2023-05-07T14:47:55;6.57;;;3.00;;
3257;SDS011;1641;51.306;12.384;2023-05-07T14:53:03;3.10;;;2.80;;
3257;SDS011;1641;51.306;12.384;2023-05-07T14:55:48;7.35;;;3.13;;
3257;SDS011;1641;51.306;12.384;2023-05-07T14:58:14;4.25;;;3.58;;
3257;SDS011;1641;51.306;12.384;2023-05-07T15:00:39;3.05;;;2.75;;
3257;SDS011;1641;51.306;12.384;2023-05-07T15:03:23;3.72;;;3.33;;
3257;SDS011;1641;51.306;12.384;2023-05-07T15:05:48;2.60;;;2.33;;
3257;SDS011;1641;51.306;12.384;2023-05-07T15:08:31;2.63;;;2.42;;
3257;SDS011;1641;51.306;12.384;2023-05-07T15:11:12;2.53;;;2.33;;
3257;SDS011;1641;51.306;12.384;2023-05-07T15:16:36;2.80;;;2.60;;
3257;SDS011;1641;51.306;12.384;2023-05-07T15:27:06;2.55;;;2.35;;
3257;SDS011;1641;51.306;12.384;2023-05-07T15:29:31;3.55;;;2.28;;
3257;SDS011;1641;51.306;12.384;2023-05-07T15:31:59;7.68;;;2.50;;
3257;SDS011;1641;51.306;12.384;2023-05-07T15:34:24;2.83;;;2.63;;
3257;SDS011;1641;51.306;12.384;2023-05-07T15:36:50;6.03;;;2.60;;
3257;SDS011;1641;51.306;12.384;2023-05-07T15:42:08;5.10;;;2.70;;
3257;SDS011;1641;51.306;12.384;2023-05-07T15:44:39;4.18;;;2.80;;
3257;SDS011;1641;51.306;12.384;2023-05-07T15:49:49;2.50;;;1.88;;
3257;SDS011;1641;51.306;12.384;2023-05-07T15:55:07;4.00;;;2.80;;
3257;SDS011;1641;51.306;12.384;2023-05-07T15:57:34;4.15;;;3.30;;
3257;SDS011;1641;51.306;12.384;2023-05-07T15:59:59;2.90;;;2.58;;